Weather History for KBAX - December, 2013

Change the Weather History Date:

Wednesday, December 4, 2013

  Actual Average (KP58) Record (KP58)
Temperature  
Mean Temperature 42 °F -  
Max Temperature 50 °F 36 °F 64 °F (2012)
Min Temperature 34 °F 28 °F 12 °F (2002)
Degree Days  
Heating Degree Days 24    
Moisture  
Dew Point 39 °F    
Average Humidity 95    
Maximum Humidity 99    
Minimum Humidity 90    
Precipitation  
Precipitation 0.00 in - - ()
Sea Level Pressure  
Sea Level Pressure 29.81 in    
Wind  
Wind Speed 5 mph (SE)    
Max Wind Speed 17 mph    
Max Gust Speed 23 mph    
Visibility 3 miles    
Events Snow    
Averages and records for this station are not official NWS values.
T = Trace of Precipitation, MM = Missing Value Source: NWS Daily Summary

Daily Weather History Graph

Daily Weather History Graph

Search for Another Location

Airport or City:

Trip Planner

Search our weather history database for the weather conditions in past years. The results will help you decide how hot, cold, wet, or windy it might be!

Date:

Astronomy

Dec. 04, 2013 Rise Set
Actual Time 7:49 AM EST 4:55 PM EST
Civil Twilight 7:16 AM EST 5:27 PM EST
Nautical Twilight 6:40 AM EST 6:03 PM EST
Astronomical Twilight 6:06 AM EST 6:38 PM EST
Moon 9:15 AM EST (12/4) 7:05 PM EST (12/4)
Length of Visible Light 10h 10m
Length of Day
9h 05m
Waxing Crescent, 4% of the Moon is Illuminated
Dec 4
Waxing Crescent
Dec 9
First Quarter
Dec 17
Full
Dec 25
Last Quarter
Jan 1
New

Hourly Weather History & Observations

Time (EST) Temp. Windchill Dew Point Humidity Pressure Visibility Wind Dir Wind Speed Gust Speed Precip Events Conditions
12:14 AM 34.7 °F 31.8 °F 32.5 °F 92% 29.89 in 4.0 mi East 3.5 mph - N/A Snow Light Snow
12:33 AM 34.7 °F 31.8 °F 32.9 °F 93% 29.90 in 3.0 mi East 3.5 mph - N/A Snow Light Snow
12:54 AM 34.7 °F - 32.9 °F 93% 29.90 in 3.0 mi Calm Calm - N/A Snow Light Snow
1:14 AM 34.5 °F - 33.1 °F 94% 29.90 in 2.5 mi Calm Calm - N/A   Overcast
1:33 AM 34.5 °F 31.6 °F 33.3 °F 95% 29.89 in 2.5 mi ESE 3.5 mph - N/A   Overcast
1:54 AM 34.7 °F 28.8 °F 33.8 °F 97% 29.87 in 2.0 mi East 6.9 mph - N/A   Overcast
2:14 AM 34.9 °F 29.9 °F 34.0 °F 97% 29.86 in 2.5 mi ESE 5.8 mph - N/A   Overcast
2:33 AM 35.1 °F 30.1 °F 34.3 °F 97% 29.86 in 2.5 mi ESE 5.8 mph - N/A   Overcast
2:54 AM 35.2 °F 30.3 °F 34.7 °F 98% 29.86 in 2.5 mi SE 5.8 mph - N/A   Overcast
3:14 AM 35.6 °F 30.7 °F 34.9 °F 97% 29.87 in 3.0 mi SSE 5.8 mph - N/A   Overcast
3:33 AM 35.6 °F 31.7 °F 34.9 °F 97% 29.88 in 3.0 mi SE 4.6 mph - N/A   Overcast
3:54 AM 35.6 °F 31.7 °F 34.7 °F 97% 29.88 in 2.5 mi SE 4.6 mph - N/A   Overcast
4:14 AM 35.8 °F 31.9 °F 35.1 °F 97% 29.87 in 2.5 mi SE 4.6 mph - N/A   Overcast
4:33 AM 35.8 °F 31.9 °F 35.1 °F 97% 29.88 in 2.5 mi SSE 4.6 mph - N/A   Overcast
4:54 AM 36.1 °F 33.5 °F 35.6 °F 98% 29.88 in 3.0 mi SSE 3.5 mph - N/A   Overcast
5:14 AM 36.3 °F 33.7 °F 35.6 °F 97% 29.87 in 2.5 mi SE 3.5 mph - N/A   Overcast
5:33 AM 36.1 °F 32.3 °F 35.6 °F 98% 29.87 in 2.5 mi SSE 4.6 mph - N/A   Overcast
5:54 AM 36.0 °F 33.3 °F 35.4 °F 98% 29.88 in 2.5 mi SSE 3.5 mph - N/A   Overcast
6:14 AM 36.3 °F - 35.6 °F 97% 29.88 in 2.5 mi Calm Calm - N/A   Overcast
6:33 AM 36.5 °F 33.9 °F 35.8 °F 97% 29.87 in 2.5 mi ESE 3.5 mph - N/A   Overcast
6:54 AM 36.5 °F 33.9 °F 36.0 °F 98% 29.87 in 2.5 mi ESE 3.5 mph - N/A   Overcast
7:14 AM 36.5 °F - 36.0 °F 98% 29.88 in 2.5 mi Calm Calm - N/A   Overcast
7:33 AM 36.5 °F 33.9 °F 36.0 °F 98% 29.88 in 2.5 mi SE 3.5 mph - N/A   Overcast
7:54 AM 36.7 °F - 36.1 °F 98% 29.89 in 2.5 mi Calm Calm - N/A   Overcast
8:14 AM 36.9 °F - 36.1 °F 97% 29.91 in 1.5 mi Calm Calm - N/A   Overcast
8:33 AM 36.9 °F 34.3 °F 36.5 °F 99% 29.90 in 1.2 mi East 3.5 mph - N/A   Overcast
8:54 AM 37.0 °F - 36.5 °F 98% 29.90 in 1.5 mi Calm Calm - N/A   Overcast
9:13 AM 37.4 °F 34.9 °F 36.9 °F 98% 29.90 in 1.8 mi SE 3.5 mph - N/A   Overcast
9:34 AM 37.8 °F 35.3 °F 37.4 °F 99% 29.90 in 1.8 mi SSE 3.5 mph - N/A   Overcast
9:54 AM 38.3 °F 35.9 °F 37.6 °F 97% 29.90 in 2.0 mi SE 3.5 mph - N/A   Overcast
10:13 AM 38.7 °F 36.3 °F 37.9 °F 97% 29.90 in 2.0 mi SE 3.5 mph - N/A   Overcast
10:34 AM 39.0 °F 36.8 °F 38.1 °F 97% 29.90 in 2.0 mi SE 3.5 mph - N/A   Overcast
10:54 AM 39.4 °F 36.1 °F 38.5 °F 97% 29.90 in 2.0 mi SE 4.6 mph - N/A   Overcast
11:13 AM 39.6 °F 37.4 °F 38.7 °F 97% 29.89 in 2.0 mi ESE 3.5 mph - N/A   Overcast
11:33 AM 39.9 °F 36.7 °F 38.8 °F 96% 29.88 in 2.0 mi ESE 4.6 mph - N/A   Overcast
11:54 AM 40.3 °F 37.1 °F 39.2 °F 96% 29.87 in 2.0 mi SE 4.6 mph - N/A   Overcast
12:13 PM 41.0 °F 37.1 °F 39.7 °F 95% 29.86 in 2.0 mi SE 5.8 mph - N/A   Overcast
12:33 PM 41.0 °F 38.0 °F 39.7 °F 95% 29.85 in 2.0 mi East 4.6 mph - N/A   Overcast
12:54 PM 41.9 °F 39.0 °F 40.5 °F 95% 29.83 in 2.5 mi ESE 4.6 mph - N/A   Overcast
1:13 PM 42.1 °F 38.4 °F 41.0 °F 96% 29.82 in 2.0 mi ESE 5.8 mph - N/A   Overcast
1:34 PM 42.8 °F 41.1 °F 41.0 °F 93% 29.82 in 2.5 mi SE 3.5 mph - N/A   Overcast
1:53 PM 43.0 °F 38.8 °F 41.4 °F 94% 29.81 in 2.5 mi ESE 6.9 mph - N/A   Overcast
2:13 PM 43.0 °F - 41.4 °F 94% 29.81 in 3.0 mi Calm Calm - N/A   Overcast
2:34 PM 43.0 °F 39.5 °F 41.2 °F 93% 29.81 in 3.0 mi SE 5.8 mph - N/A   Overcast
2:53 PM 42.8 °F 39.3 °F 41.0 °F 93% 29.81 in 3.0 mi ESE 5.8 mph - N/A   Overcast
3:13 PM 42.8 °F 40.1 °F 41.0 °F 93% 29.81 in 3.0 mi SE 4.6 mph - N/A   Overcast
3:34 PM 42.8 °F 39.3 °F 41.0 °F 93% 29.81 in 3.0 mi ESE 5.8 mph - N/A   Overcast
3:53 PM 42.8 °F 40.1 °F 41.0 °F 93% 29.80 in 3.0 mi ESE 4.6 mph - N/A   Overcast
4:13 PM 42.4 °F 38.8 °F 40.6 °F 93% 29.79 in 3.0 mi ESE 5.8 mph - N/A   Overcast
4:34 PM 42.1 °F 37.7 °F 40.3 °F 93% 29.77 in 3.0 mi ESE 6.9 mph - N/A   Overcast
4:54 PM 41.5 °F 37.8 °F 39.7 °F 93% 29.77 in 4.0 mi ESE 5.8 mph - N/A   Overcast
5:14 PM 41.9 °F 36.3 °F 39.7 °F 92% 29.76 in 5.0 mi ESE 9.2 mph - N/A   Overcast
5:34 PM 41.9 °F 36.3 °F 39.4 °F 91% 29.75 in 5.0 mi ESE 9.2 mph - N/A   Overcast
5:53 PM 42.3 °F 36.8 °F 39.7 °F 91% 29.74 in 5.0 mi ESE 9.2 mph 16.1 mph N/A   Overcast
6:14 PM 42.3 °F 36.3 °F 39.6 °F 90% 29.72 in 5.0 mi ESE 10.4 mph 17.3 mph N/A   Overcast
6:34 PM 42.3 °F 37.3 °F 39.4 °F 90% 29.72 in 5.0 mi ESE 8.1 mph - N/A   Overcast
6:53 PM 42.3 °F 35.9 °F 39.4 °F 90% 29.70 in 5.0 mi ESE 11.5 mph 18.4 mph N/A   Overcast
7:14 PM 42.8 °F 37.0 °F 39.9 °F 90% 29.69 in 5.0 mi SE 10.4 mph 17.3 mph N/A   Overcast
7:34 PM 43.2 °F 37.0 °F 40.5 °F 90% 29.69 in 4.0 mi SE 11.5 mph 17.3 mph N/A   Unknown
7:53 PM 43.3 °F 37.2 °F 41.2 °F 92% 29.70 in 4.0 mi SE 11.5 mph 17.3 mph N/A   Unknown
8:13 PM 43.7 °F 37.7 °F 41.9 °F 93% 29.68 in 2.5 mi SE 11.5 mph 17.3 mph N/A   Unknown
8:33 PM 43.9 °F 37.9 °F 42.4 °F 95% 29.67 in 2.0 mi SE 11.5 mph 17.3 mph N/A   Unknown
8:54 PM 44.2 °F 38.4 °F 43.0 °F 95% 29.67 in 3.0 mi SE 11.5 mph 17.3 mph N/A   Light Drizzle
9:13 PM 44.8 °F 39.4 °F 43.3 °F 95% 29.66 in 5.0 mi SE 10.4 mph 16.1 mph N/A   Overcast
9:33 PM 45.0 °F 39.7 °F 43.3 °F 94% 29.65 in 5.0 mi SSE 10.4 mph 18.4 mph N/A   Overcast
9:54 PM 45.5 °F 40.8 °F 43.9 °F 94% 29.63 in 5.0 mi SSE 9.2 mph - N/A   Overcast
10:13 PM 46.0 °F 40.6 °F 44.6 °F 95% 29.62 in 5.0 mi SSE 11.5 mph - N/A   Overcast
10:33 PM 46.6 °F - 45.1 °F 95% 29.62 in 5.0 mi SSE 10.4 mph - N/A   Overcast
10:53 PM 47.8 °F - 46.4 °F 95% 29.60 in 5.0 mi SSE 12.7 mph 18.4 mph N/A   Overcast
11:13 PM 49.1 °F - 46.9 °F 92% 29.59 in 7.0 mi SSE 15.0 mph 19.6 mph N/A   Overcast
11:34 PM 49.6 °F - 47.3 °F 92% 29.58 in 7.0 mi South 17.3 mph 23.0 mph N/A   Overcast
11:53 PM 50.2 °F - 47.5 °F 90% 29.58 in 7.0 mi South 16.1 mph 23.0 mph N/A   Overcast